Salado, Arkansas
Current Conditions -  °F | °C
As of 12:35 PM on Sunday 25 Jan 2015 (Local Time) from KBVX Reporting Station
Overcast Overcast  
Wind Chill: 55°   Ceiling: 6000
Heat Index: 55°   Visibility: 10mi
Dew Point: 36°   Wind: 14mph
Humidity: 47%   Direction: 260°W
Pressure: 29.69"   Gusts: 22mph
Location:  35.69°N, 91.6°W
Report Text: KBVX 251835Z AUTO 26012G19KT 210V320 10SM FEW050 BKN060 OVC075 13/02 A2969 RMK AO1
Loading
Personal Weather Stations






























Interactive Weather Map New forecast layout! Learn more

10-Day Weather Forecast

Advertisements
Track Severe Weather on mobile